createdAt,value
2022-09-12T00:00:06.940Z,45.99
2022-09-12T00:01:07.212Z,46.14
2022-09-12T00:02:07.326Z,46.25
2022-09-12T00:03:07.336Z,46.19
2022-09-12T00:04:07.422Z,46.25
2022-09-12T00:05:07.573Z,46.14
2022-09-12T00:06:07.762Z,45.89
2022-09-12T00:07:07.830Z,45.84
2022-09-12T00:08:07.952Z,46.19
2022-09-12T00:09:08.077Z,45.49
2022-09-12T00:10:08.161Z,45.54
2022-09-12T00:11:08.520Z,45.69
2022-09-12T00:12:08.421Z,45.44
2022-09-12T00:13:08.510Z,45.49
2022-09-12T00:14:08.623Z,45.64
2022-09-12T00:15:08.723Z,45.54
2022-09-12T00:16:08.917Z,45.39
2022-09-12T00:17:09.049Z,45.49
2022-09-12T00:18:09.101Z,45.44
2022-09-12T00:19:09.208Z,45.44
2022-09-12T00:20:09.290Z,45.29
2022-09-12T00:21:09.586Z,45.49
2022-09-12T00:22:09.611Z,44.90
2022-09-12T00:23:09.711Z,45.00
2022-09-12T00:24:09.898Z,44.71
2022-09-12T00:25:09.938Z,44.57
2022-09-12T00:26:10.077Z,44.33
2022-09-12T00:27:10.236Z,44.57
2022-09-12T00:28:10.377Z,44.62
2022-09-12T00:29:10.495Z,44.47
2022-09-12T00:30:10.575Z,44.24
2022-09-12T00:31:10.705Z,44.28
2022-09-12T00:32:10.917Z,44.05
2022-09-12T00:33:10.946Z,43.87
2022-09-12T00:34:11.095Z,43.82
2022-09-12T00:35:11.235Z,43.96
2022-09-12T00:36:11.367Z,43.68
2022-09-12T00:37:11.564Z,43.68
2022-09-12T00:38:11.633Z,43.50
2022-09-12T00:39:11.718Z,43.01
2022-09-12T00:40:11.909Z,42.53
2022-09-12T00:41:11.983Z,42.01
2022-09-12T00:42:12.806Z,42.05
2022-09-12T00:43:12.332Z,41.76
2022-09-12T00:44:12.373Z,41.63
2022-09-12T00:45:12.454Z,41.39
2022-09-12T00:46:12.591Z,41.39
2022-09-12T00:47:12.744Z,41.72
2022-09-12T00:48:13.003Z,41.76
2022-09-12T00:49:13.000Z,41.97
2022-09-12T00:50:13.151Z,42.10
2022-09-12T00:51:13.231Z,42.14
2022-09-12T00:52:13.390Z,42.10
2022-09-12T00:53:13.612Z,42.40
2022-09-12T00:54:13.645Z,42.05
2022-09-12T00:55:13.813Z,42.05
2022-09-12T00:56:13.851Z,42.10
2022-09-12T00:57:13.998Z,41.97
2022-09-12T00:58:14.180Z,42.10
2022-09-12T00:59:14.220Z,42.10
2022-09-12T01:00:14.369Z,41.84
2022-09-12T01:01:14.590Z,41.76
2022-09-12T01:02:14.721Z,41.55
2022-09-12T01:03:14.841Z,41.59
2022-09-12T01:04:14.869Z,41.47
2022-09-12T01:05:14.998Z,41.14
2022-09-12T01:06:15.149Z,40.82
2022-09-12T01:07:15.470Z,40.82
2022-09-12T01:08:15.428Z,41.26
2022-09-12T01:09:15.589Z,41.51
2022-09-12T01:10:15.680Z,41.72
2022-09-12T01:11:15.807Z,41.89
2022-09-12T01:12:16.067Z,42.05
2022-09-12T01:13:16.226Z,42.01
2022-09-12T01:14:16.219Z,42.10
2022-09-12T01:15:16.355Z,42.14
2022-09-12T01:16:16.518Z,42.31
2022-09-12T01:17:16.707Z,42.10
2022-09-12T01:18:16.737Z,42.35
2022-09-12T01:19:16.826Z,42.53
2022-09-12T01:20:16.986Z,42.48
2022-09-12T01:21:17.068Z,42.66
2022-09-12T01:22:17.495Z,42.57
2022-09-12T01:23:17.325Z,42.74
2022-09-12T01:24:18.115Z,42.61
2022-09-12T01:25:17.506Z,42.57
2022-09-12T01:26:17.674Z,42.61
2022-09-12T01:27:17.777Z,42.70
2022-09-12T01:28:17.944Z,42.79
2022-09-12T01:29:17.982Z,43.05
2022-09-12T01:30:18.125Z,42.92
2022-09-12T01:31:18.253Z,43.10
2022-09-12T01:32:18.455Z,42.83
2022-09-12T01:33:18.593Z,42.96
2022-09-12T01:34:18.675Z,43.19
2022-09-12T01:35:18.772Z,43.14
2022-09-12T01:36:18.852Z,43.23
2022-09-12T01:37:19.032Z,43.28
2022-09-12T01:38:19.251Z,43.32
2022-09-12T01:39:19.264Z,43.14
2022-09-12T01:40:19.373Z,42.66
2022-09-12T01:41:19.451Z,42.66
2022-09-12T01:42:19.733Z,42.66
2022-09-12T01:43:19.711Z,42.70
2022-09-12T01:44:19.890Z,42.88
2022-09-12T01:45:19.980Z,42.88
2022-09-12T01:46:20.140Z,43.14
2022-09-12T01:47:20.381Z,43.28
2022-09-12T01:48:20.363Z,43.50
2022-09-12T01:49:20.669Z,43.59
2022-09-12T01:50:20.660Z,43.73
2022-09-12T01:51:20.768Z,43.64
2022-09-12T01:52:20.957Z,43.82
2022-09-12T01:53:21.208Z,44.19
2022-09-12T01:54:21.149Z,43.68
2022-09-12T01:55:21.317Z,43.91
2022-09-12T01:56:21.428Z,43.87
2022-09-12T01:57:21.538Z,43.59
2022-09-12T01:58:21.800Z,43.68
2022-09-12T01:59:21.810Z,43.68
2022-09-12T02:00:21.907Z,43.50
2022-09-12T02:01:22.106Z,43.64
2022-09-12T02:02:22.231Z,43.91
2022-09-12T02:03:22.697Z,43.64
2022-09-12T02:04:22.469Z,43.96
2022-09-12T02:05:22.605Z,44.10
2022-09-12T02:06:22.727Z,44.19
2022-09-12T02:07:22.877Z,44.05
2022-09-12T02:08:23.115Z,44.10
2022-09-12T02:09:23.168Z,44.00
2022-09-12T02:10:23.256Z,44.28
2022-09-12T02:11:23.394Z,44.33
2022-09-12T02:12:23.564Z,44.33
2022-09-12T02:13:23.764Z,44.33
2022-09-12T02:14:23.824Z,44.38
2022-09-12T02:15:23.927Z,44.52
2022-09-12T02:16:24.112Z,44.52
2022-09-12T02:17:24.205Z,44.71
2022-09-12T02:18:24.441Z,44.81
2022-09-12T02:19:24.462Z,44.71
2022-09-12T02:20:46.520Z,44.90
2022-09-12T02:21:25.702Z,44.90
2022-09-12T02:22:24.843Z,45.00
2022-09-12T02:23:25.093Z,45.15
2022-09-12T02:24:25.115Z,45.00
2022-09-12T02:25:25.221Z,45.19
2022-09-12T02:26:25.322Z,45.19
2022-09-12T02:27:25.471Z,45.05
2022-09-12T02:28:25.763Z,45.15
2022-09-12T02:29:25.731Z,45.15
2022-09-12T02:30:25.895Z,45.10
2022-09-12T02:31:25.992Z,45.19
2022-09-12T02:32:26.122Z,45.34
2022-09-12T02:33:26.351Z,45.29
2022-09-12T02:34:26.379Z,45.39
2022-09-12T02:35:26.510Z,45.34
2022-09-12T02:36:26.668Z,45.19
2022-09-12T02:37:26.787Z,45.54
2022-09-12T02:38:26.961Z,45.54
2022-09-12T02:39:27.023Z,45.74
2022-09-12T02:40:27.241Z,45.49
2022-09-12T02:41:27.228Z,45.39
2022-09-12T02:42:27.430Z,45.34
2022-09-12T02:43:27.570Z,45.49
2022-09-12T02:44:27.667Z,45.79
2022-09-12T02:45:27.885Z,45.64
2022-09-12T02:46:27.966Z,45.74
2022-09-12T02:47:28.118Z,45.69
2022-09-12T02:48:28.268Z,45.74
2022-09-12T02:49:28.918Z,45.34
2022-09-12T02:50:28.496Z,45.34
2022-09-12T02:51:28.626Z,45.44
2022-09-12T02:52:28.777Z,45.39
2022-09-12T02:53:28.984Z,45.54
2022-09-12T02:54:29.126Z,45.49
2022-09-12T02:55:29.203Z,45.10
2022-09-12T02:56:29.296Z,45.39
2022-09-12T02:57:29.425Z,45.05
2022-09-12T02:58:29.676Z,45.05
2022-09-12T02:59:29.655Z,44.57
2022-09-12T03:00:29.785Z,44.81
2022-09-12T03:01:29.942Z,44.52
2022-09-12T03:02:30.239Z,44.66
2022-09-12T03:03:30.254Z,44.38
2022-09-12T03:04:30.354Z,44.05
2022-09-12T03:05:30.703Z,43.87
2022-09-12T03:06:30.583Z,43.82
2022-09-12T03:07:30.756Z,44.10
2022-09-12T03:08:30.834Z,44.24
2022-09-12T03:09:30.964Z,44.19
2022-09-12T03:10:31.131Z,44.76
2022-09-12T03:11:31.311Z,44.57
2022-09-12T03:12:31.364Z,45.00
2022-09-12T03:13:31.502Z,45.15
2022-09-12T03:14:31.654Z,44.95
2022-09-12T03:15:31.931Z,45.05
2022-09-12T03:16:31.955Z,45.44
2022-09-12T03:17:32.074Z,45.74
2022-09-12T03:18:32.227Z,45.69
2022-09-12T03:19:32.322Z,45.54
2022-09-12T03:20:32.560Z,45.84
2022-09-12T03:21:32.579Z,45.19
2022-09-12T03:22:32.782Z,45.49
2022-09-12T03:23:32.838Z,45.29
2022-09-12T03:24:32.960Z,45.29
2022-09-12T03:25:33.161Z,45.29
2022-09-12T03:26:33.244Z,45.34
2022-09-12T03:27:33.389Z,45.69
2022-09-12T03:28:33.498Z,45.44
2022-09-12T03:29:33.609Z,45.44
2022-09-12T03:30:33.836Z,45.19
2022-09-12T03:31:33.889Z,45.49
2022-09-12T03:32:34.037Z,45.34
2022-09-12T03:33:34.117Z,45.24
2022-09-12T03:34:34.246Z,44.90
2022-09-12T03:35:34.405Z,45.00
2022-09-12T03:36:34.505Z,45.05
2022-09-12T03:37:34.646Z,44.85
2022-09-12T03:38:34.874Z,45.00
2022-09-12T03:39:34.898Z,45.00
2022-09-12T03:40:35.021Z,44.90
2022-09-12T03:41:35.146Z,44.47
2022-09-12T03:42:35.295Z,44.90
2022-09-12T03:43:35.757Z,44.71
2022-09-12T03:44:35.526Z,44.66
2022-09-12T03:45:35.674Z,44.43
2022-09-12T03:46:35.809Z,43.91
2022-09-12T03:47:35.973Z,43.91
2022-09-12T03:48:36.139Z,43.91
2022-09-12T03:49:36.272Z,43.64
2022-09-12T03:50:36.301Z,43.82
2022-09-12T03:51:36.431Z,43.77
2022-09-12T03:52:36.583Z,43.77
2022-09-12T03:53:36.763Z,43.77
2022-09-12T03:54:37.015Z,43.28
2022-09-12T03:55:36.954Z,43.54
2022-09-12T03:56:37.084Z,43.82
2022-09-12T03:57:37.234Z,43.59
2022-09-12T03:58:37.362Z,43.46
2022-09-12T03:59:37.611Z,43.41
2022-09-12T04:00:37.642Z,43.19
2022-09-12T04:01:37.802Z,43.32
2022-09-12T04:02:37.919Z,43.41
2022-09-12T04:03:38.064Z,43.50
2022-09-12T04:04:38.351Z,43.41
2022-09-12T04:05:38.336Z,43.59
2022-09-12T04:06:38.473Z,43.77
2022-09-12T04:07:38.601Z,43.64
2022-09-12T04:08:38.761Z,43.96
2022-09-12T04:09:39.102Z,44.28
2022-09-12T04:10:39.020Z,44.43
2022-09-12T04:11:39.170Z,44.52
2022-09-12T04:12:39.320Z,44.57
2022-09-12T04:13:39.416Z,44.66
2022-09-12T04:14:39.589Z,44.71
2022-09-12T04:15:39.761Z,44.90
2022-09-12T04:16:39.822Z,44.95
2022-09-12T04:17:39.938Z,44.85
2022-09-12T04:18:40.078Z,44.90
2022-09-12T04:19:40.258Z,44.95
2022-09-12T04:20:40.427Z,44.71
2022-09-12T04:21:40.456Z,44.81
2022-09-12T04:22:40.659Z,44.24
2022-09-12T04:23:40.727Z,44.57
2022-09-12T04:24:40.869Z,44.10
2022-09-12T04:25:41.131Z,44.05
2022-09-12T04:26:41.186Z,44.28
2022-09-12T04:27:41.235Z,44.00
2022-09-12T04:28:41.344Z,43.73
2022-09-12T04:29:41.490Z,44.05
2022-09-12T04:30:41.774Z,43.82
2022-09-12T04:31:41.994Z,43.77
2022-09-12T04:32:41.897Z,43.96
2022-09-12T04:33:41.966Z,43.73
2022-09-12T04:34:42.114Z,43.96
2022-09-12T04:35:42.583Z,44.05
2022-09-12T04:36:42.404Z,44.14
2022-09-12T04:37:42.533Z,44.19
2022-09-12T04:38:42.698Z,44.10
2022-09-12T04:39:43.078Z,44.10
2022-09-12T04:40:42.923Z,44.14
2022-09-12T04:41:43.165Z,44.19
2022-09-12T04:42:43.265Z,44.05
2022-09-12T04:43:43.304Z,44.05
2022-09-12T04:44:43.444Z,44.05
2022-09-12T04:45:43.603Z,44.00
2022-09-12T04:46:43.840Z,44.10
2022-09-12T04:47:43.871Z,44.10
2022-09-12T04:48:44.077Z,44.05
2022-09-12T04:49:44.142Z,44.19
2022-09-12T04:50:44.271Z,44.00
2022-09-12T04:51:44.672Z,44.19
2022-09-12T04:52:44.540Z,44.10
2022-09-12T04:53:44.691Z,43.96
2022-09-12T04:54:44.822Z,44.14
2022-09-12T04:55:44.944Z,43.77
2022-09-12T04:56:45.180Z,43.82
2022-09-12T04:57:45.320Z,43.82
2022-09-12T04:58:45.356Z,43.77
2022-09-12T04:59:45.499Z,43.87
2022-09-12T05:00:45.649Z,44.38
2022-09-12T05:01:45.909Z,44.38
2022-09-12T05:02:45.989Z,44.52
2022-09-12T05:03:46.038Z,44.57
2022-09-12T05:04:46.190Z,44.43
2022-09-12T05:05:46.328Z,44.57
2022-09-12T05:06:46.490Z,44.85
2022-09-12T05:07:46.611Z,44.71
2022-09-12T05:08:46.796Z,44.76
2022-09-12T05:09:46.835Z,44.71
2022-09-12T05:10:46.995Z,44.95
2022-09-12T05:12:04.638Z,45.00
2022-09-12T05:12:48.317Z,44.81
2022-09-12T05:13:47.400Z,44.81
2022-09-12T05:14:47.486Z,44.95
2022-09-12T05:15:47.616Z,44.90
2022-09-12T05:16:49.647Z,44.85
2022-09-12T05:17:48.018Z,45.05
2022-09-12T05:18:48.073Z,44.81
2022-09-12T05:19:48.135Z,44.95
2022-09-12T05:20:48.272Z,45.15
2022-09-12T05:21:48.429Z,45.34
2022-09-12T05:22:48.744Z,45.00
2022-09-12T05:23:48.673Z,44.90
2022-09-12T05:24:50.750Z,45.15
2022-09-12T05:25:48.953Z,44.81
2022-09-12T05:26:49.051Z,44.85
2022-09-12T05:27:50.586Z,44.90
2022-09-12T05:28:49.325Z,44.66
2022-09-12T05:29:49.442Z,44.85
2022-09-12T05:30:49.595Z,44.90
2022-09-12T05:31:49.703Z,44.95
2022-09-12T05:32:49.862Z,44.81
2022-09-12T05:33:49.963Z,45.10
2022-09-12T05:34:50.090Z,44.71
2022-09-12T05:35:50.212Z,44.71
2022-09-12T05:36:50.352Z,44.90
2022-09-12T05:37:50.589Z,44.66
2022-09-12T05:38:50.610Z,44.62
2022-09-12T05:39:50.755Z,44.71
2022-09-12T05:40:50.872Z,44.71
2022-09-12T05:41:51.245Z,44.43
2022-09-12T05:42:51.273Z,44.57
2022-09-12T05:43:51.246Z,44.43
2022-09-12T05:44:51.378Z,44.66
2022-09-12T05:45:51.544Z,44.57
2022-09-12T05:46:51.649Z,44.28
2022-09-12T05:47:51.938Z,44.62
2022-09-12T05:48:55.837Z,44.66
2022-09-12T05:49:52.043Z,44.57
2022-09-12T05:50:52.187Z,44.71
2022-09-12T05:51:52.316Z,44.62
2022-09-12T05:52:52.677Z,44.52
2022-09-12T05:53:52.556Z,44.52
2022-09-12T05:54:52.679Z,44.57
2022-09-12T05:55:52.808Z,44.47
2022-09-12T05:56:52.959Z,44.38
2022-09-12T05:57:53.197Z,44.19
2022-09-12T05:58:53.367Z,44.10
2022-09-12T05:59:53.356Z,44.00
2022-09-12T06:00:53.486Z,43.96
2022-09-12T06:01:53.616Z,44.14
2022-09-12T06:02:53.785Z,44.38
2022-09-12T06:03:54.105Z,44.38
2022-09-12T06:04:53.984Z,44.33
2022-09-12T06:05:54.124Z,44.28
2022-09-12T06:06:54.262Z,44.57
2022-09-12T06:07:54.414Z,45.05
2022-09-12T06:08:54.621Z,44.57
2022-09-12T06:09:54.614Z,44.71
2022-09-12T06:10:54.753Z,45.00
2022-09-12T06:11:54.873Z,45.10
2022-09-12T06:12:55.032Z,45.94
2022-09-12T06:13:55.215Z,46.35
2022-09-12T06:14:55.383Z,46.87
2022-09-12T06:15:55.417Z,47.24
2022-09-12T06:16:55.589Z,47.86
2022-09-12T06:17:55.651Z,48.33
2022-09-12T06:18:55.961Z,49.27
2022-09-12T06:19:55.892Z,50.10
2022-09-12T06:20:56.019Z,50.96
2022-09-12T06:21:56.144Z,51.27
2022-09-12T06:22:57.851Z,51.81
2022-09-12T06:23:56.601Z,52.70
2022-09-12T06:24:58.043Z,53.41
2022-09-12T06:25:56.673Z,54.17
2022-09-12T06:26:56.788Z,54.56
2022-09-12T06:27:56.929Z,55.17
2022-09-12T06:28:57.069Z,56.21
2022-09-12T06:29:57.249Z,56.86
2022-09-12T06:30:57.369Z,57.41
2022-09-12T06:31:57.451Z,58.05
2022-09-12T06:32:57.570Z,58.50
2022-09-12T06:33:57.850Z,58.91
2022-09-12T06:34:57.847Z,59.88
2022-09-12T06:35:57.957Z,60.67
2022-09-12T06:36:58.187Z,60.19
2022-09-12T06:37:58.238Z,60.67
2022-09-12T06:38:58.349Z,60.36
2022-09-12T06:39:58.707Z,60.36
2022-09-12T06:40:58.618Z,61.07
2022-09-12T06:41:58.757Z,61.52
2022-09-12T06:42:58.922Z,61.88
2022-09-12T06:43:59.025Z,62.25
2022-09-12T06:44:59.217Z,62.07
2022-09-12T06:45:59.392Z,62.39
2022-09-12T06:46:59.426Z,62.72
2022-09-12T06:47:59.564Z,62.25
2022-09-12T06:48:59.707Z,61.93
2022-09-12T06:49:59.896Z,61.97
2022-09-12T06:50:59.959Z,62.16
2022-09-12T06:52:00.156Z,62.86
2022-09-12T06:53:00.210Z,63.72
2022-09-12T06:54:00.353Z,63.77
2022-09-12T06:55:00.515Z,64.36
2022-09-12T06:56:00.614Z,67.49
2022-09-12T06:57:00.828Z,69.57
2022-09-12T06:58:00.894Z,72.98
2022-09-12T06:59:00.984Z,75.01
2022-09-12T07:00:01.137Z,75.97
2022-09-12T07:01:01.311Z,75.01
2022-09-12T07:02:01.540Z,76.95
2022-09-12T07:03:01.528Z,78.69
2022-09-12T07:04:01.653Z,84.25
2022-09-12T07:05:01.784Z,89.11
2022-09-12T07:06:01.932Z,91.06
2022-09-12T07:07:02.207Z,92.16
2022-09-12T07:08:02.213Z,90.66
2022-09-12T07:09:02.306Z,86.43
2022-09-12T07:10:02.454Z,84.77
2022-09-12T07:11:02.573Z,81.22
2022-09-12T07:12:02.782Z,80.05
2022-09-12T07:13:02.810Z,75.90
2022-09-12T07:14:02.953Z,73.82
2022-09-12T07:15:03.029Z,72.85
2022-09-12T07:16:03.192Z,69.57
2022-09-12T07:17:03.389Z,68.71
2022-09-12T07:18:03.410Z,70.99
2022-09-12T07:19:03.531Z,73.95
2022-09-12T07:20:03.652Z,74.61
2022-09-12T07:21:03.801Z,75.28
2022-09-12T07:22:04.231Z,77.16
2022-09-12T07:23:05.902Z,82.50
2022-09-12T07:24:04.170Z,85.64
2022-09-12T07:25:04.302Z,86.61
2022-09-12T07:26:04.452Z,81.78
2022-09-12T07:27:04.653Z,85.81
2022-09-12T07:28:04.693Z,88.26
2022-09-12T07:29:32.288Z,86.52
2022-09-12T07:30:05.951Z,84.77
2022-09-12T07:31:05.099Z,78.76
2022-09-12T07:32:05.288Z,75.42
2022-09-12T07:33:05.379Z,76.25
2022-09-12T07:34:05.471Z,81.06
2022-09-12T07:35:05.600Z,84.77
2022-09-12T07:36:05.731Z,87.07
2022-09-12T07:37:05.975Z,90.76
2022-09-12T07:38:06.067Z,93.82
2022-09-12T07:39:06.100Z,94.71
2022-09-12T07:40:06.301Z,97.13
2022-09-12T07:41:06.349Z,97.59
2022-09-12T07:42:06.604Z,94.60
2022-09-12T07:43:06.629Z,93.61
2022-09-12T07:44:06.761Z,93.40
2022-09-12T07:45:06.858Z,93.51
2022-09-12T07:46:07.050Z,92.06
2022-09-12T07:47:07.183Z,87.61
2022-09-12T07:48:07.434Z,81.69
2022-09-12T07:49:08.411Z,80.82
2022-09-12T07:50:07.533Z,79.14
2022-09-12T07:51:07.677Z,78.69
2022-09-12T07:52:07.968Z,77.59
2022-09-12T07:53:08.097Z,75.69
2022-09-12T07:54:08.077Z,75.69
2022-09-12T07:55:08.218Z,73.56
2022-09-12T07:56:08.348Z,74.08
2022-09-12T07:57:08.490Z,75.62
2022-09-12T07:58:08.757Z,77.02
2022-09-12T07:59:08.745Z,78.62
2022-09-12T08:00:08.888Z,80.59
2022-09-12T08:01:09.063Z,82.26
2022-09-12T08:02:10.756Z,83.58
2022-09-12T08:03:09.624Z,85.90
2022-09-12T08:04:09.386Z,88.73
2022-09-12T08:05:09.520Z,91.26
2022-09-12T08:06:09.659Z,94.46
2022-09-12T08:07:09.784Z,93.51
2022-09-12T08:08:09.946Z,95.68
2022-09-12T08:09:10.123Z,110.59
2022-09-12T08:10:10.186Z,116.61
2022-09-12T08:11:10.358Z,113.99
2022-09-12T08:12:10.413Z,113.83
2022-09-12T08:13:10.989Z,112.07
2022-09-12T08:14:10.665Z,119.79
2022-09-12T08:15:10.765Z,114.22
2022-09-12T08:16:10.937Z,110.66
2022-09-12T08:17:11.035Z,105.95
2022-09-12T08:18:11.354Z,115.96
2022-09-12T08:19:11.395Z,118.10
2022-09-12T08:20:11.393Z,141.90
2022-09-12T08:21:11.474Z,156.40
2022-09-12T08:22:11.625Z,161.54
2022-09-12T08:23:11.855Z,170.80
2022-09-12T08:24:11.896Z,186.36
2022-09-12T08:25:11.984Z,200.48
2022-09-12T08:26:12.116Z,222.96
2022-09-12T08:27:12.259Z,254.42
2022-09-12T08:28:12.623Z,285.65
2022-09-12T08:29:12.504Z,307.04
2022-09-12T08:30:12.594Z,321.48
2022-09-12T08:31:12.774Z,317.74
2022-09-12T08:32:12.824Z,334.93
2022-09-12T08:33:13.124Z,348.45
2022-09-12T08:34:13.115Z,331.55
2022-09-12T08:35:13.194Z,340.49
2022-09-12T08:36:13.347Z,329.55
2022-09-12T08:37:13.432Z,334.93
2022-09-12T08:38:13.824Z,328.56
2022-09-12T08:39:13.704Z,318.36
2022-09-12T08:40:13.865Z,315.60
2022-09-12T08:41:14.006Z,351.06
2022-09-12T08:42:14.088Z,361.50
2022-09-12T08:43:14.365Z,349.19
2022-09-12T08:44:14.503Z,347.71
2022-09-12T08:45:14.474Z,342.62
2022-09-12T08:46:14.662Z,329.55
2022-09-12T08:47:14.763Z,323.38
2022-09-12T08:48:15.023Z,340.49
2022-09-12T08:49:15.134Z,358.34
2022-09-12T08:50:15.125Z,394.34
2022-09-12T08:51:15.222Z,409.60
2022-09-12T08:52:15.322Z,422.85
2022-09-12T08:53:15.522Z,420.18
2022-09-12T08:54:15.693Z,438.42
2022-09-12T08:55:15.623Z,441.61
2022-09-12T08:56:15.765Z,429.38
2022-09-12T08:57:15.912Z,410.86
2022-09-12T08:58:16.224Z,432.45
2022-09-12T08:59:16.352Z,435.55
2022-09-12T09:00:16.332Z,444.26
2022-09-12T09:01:16.534Z,426.64
2022-09-12T09:02:16.644Z,436.12
2022-09-12T09:03:16.771Z,466.97
2022-09-12T09:04:16.923Z,465.34
2022-09-12T09:05:16.964Z,470.93
2022-09-12T09:06:17.064Z,485.32
2022-09-12T09:07:17.161Z,463.40
2022-09-12T09:08:17.322Z,439.28
2022-09-12T09:09:17.591Z,444.26
2022-09-12T09:10:17.531Z,469.60
2022-09-12T09:11:17.661Z,448.74
2022-09-12T09:12:17.804Z,457.67
2022-09-12T09:13:17.923Z,463.08
2022-09-12T09:14:18.060Z,418.86
2022-09-12T09:15:18.212Z,465.34
2022-09-12T09:16:18.302Z,449.35
2022-09-12T09:17:18.364Z,432.45
2022-09-12T09:18:18.501Z,438.42
2022-09-12T09:19:18.663Z,459.88
2022-09-12T09:20:18.961Z,493.22
2022-09-12T09:21:18.841Z,525.89
2022-09-12T09:22:18.990Z,538.20
2022-09-12T09:23:19.181Z,530.07
2022-09-12T09:24:19.241Z,552.01
2022-09-12T09:25:22.739Z,545.24
2022-09-12T09:26:19.445Z,547.03
2022-09-12T09:27:39.245Z,572.88
2022-09-12T09:28:20.720Z,568.97
2022-09-12T09:29:19.865Z,582.90
2022-09-12T09:30:20.057Z,556.62
2022-09-12T09:31:20.161Z,578.35
2022-09-12T09:32:20.189Z,576.35
2022-09-12T09:33:20.333Z,559.89
2022-09-12T09:34:20.481Z,547.03
2022-09-12T09:35:20.790Z,573.37
2022-09-12T09:36:20.670Z,574.36
2022-09-12T09:37:20.811Z,547.03
2022-09-12T09:38:20.950Z,548.83
2022-09-12T09:39:21.061Z,559.89
2022-09-12T09:40:21.352Z,540.82
2022-09-12T09:41:21.439Z,553.39
2022-09-12T09:42:21.488Z,567.52
2022-09-12T09:43:21.719Z,529.65
2022-09-12T09:44:21.720Z,551.10
2022-09-12T09:45:21.937Z,599.67
2022-09-12T09:46:22.076Z,622.04
2022-09-12T09:47:22.046Z,627.31
2022-09-12T09:48:22.136Z,641.18
2022-09-12T09:49:22.279Z,630.28
2022-09-12T09:50:22.459Z,646.78
2022-09-12T09:51:22.508Z,658.28
2022-09-12T09:52:22.608Z,630.28
2022-09-12T09:53:22.703Z,638.73
2022-09-12T09:54:22.838Z,595.92
2022-09-12T09:55:23.036Z,554.77
2022-09-12T09:56:23.367Z,595.92
2022-09-12T09:57:23.246Z,599.13
2022-09-12T09:58:23.407Z,619.16
2022-09-12T09:59:23.686Z,588.04
2022-09-12T10:00:23.617Z,592.74
2022-09-12T10:01:23.771Z,587.52
2022-09-12T10:02:24.500Z,605.11
2022-09-12T10:03:24.125Z,610.09
2022-09-12T10:04:24.228Z,602.92
2022-09-12T10:05:24.277Z,624.38
2022-09-12T10:06:24.367Z,659.58
2022-09-12T10:07:24.610Z,681.14
2022-09-12T10:08:24.645Z,681.83
2022-09-12T10:09:24.738Z,651.20
2022-09-12T10:10:24.875Z,641.80
2022-09-12T10:11:25.007Z,626.13
2022-09-12T10:12:25.227Z,624.96
2022-09-12T10:13:25.303Z,633.27
2022-09-12T10:14:25.387Z,649.30
2022-09-12T10:15:25.547Z,646.16
2022-09-12T10:16:25.660Z,651.20
2022-09-12T10:17:26.093Z,666.17
2022-09-12T10:18:25.927Z,688.88
2022-09-12T10:19:26.069Z,696.79
2022-09-12T10:20:26.204Z,709.40
2022-09-12T10:21:26.353Z,696.07
2022-09-12T10:22:26.647Z,717.80
2022-09-12T10:23:26.753Z,686.75
2022-09-12T10:24:26.804Z,708.64
2022-09-12T10:25:26.898Z,704.15
2022-09-12T10:26:27.035Z,713.95
2022-09-12T10:27:27.247Z,700.45
2022-09-12T10:28:27.339Z,722.46
2022-09-12T10:29:27.554Z,737.65
2022-09-12T10:30:27.689Z,748.74
2022-09-12T10:31:27.684Z,752.96
2022-09-12T10:32:30.917Z,765.48
2022-09-12T10:33:27.946Z,767.24
2022-09-12T10:34:28.186Z,776.61
2022-09-12T10:35:28.173Z,792.28
2022-09-12T10:36:28.323Z,782.07
2022-09-12T10:37:28.464Z,752.11
2022-09-12T10:38:28.627Z,679.06
2022-09-12T10:39:28.794Z,692.45
2022-09-12T10:40:28.863Z,681.14
2022-09-12T10:41:28.977Z,671.53
2022-09-12T10:42:29.062Z,720.12
2022-09-12T10:43:29.282Z,754.66
2022-09-12T10:44:29.465Z,764.60
2022-09-12T10:45:29.465Z,778.88
2022-09-12T10:46:29.633Z,779.79
2022-09-12T10:47:29.692Z,773.46
2022-09-12T10:48:29.813Z,778.42
2022-09-12T10:49:30.269Z,768.12
2022-09-12T10:50:30.152Z,724.82
2022-09-12T10:51:30.152Z,717.02
2022-09-12T10:52:30.291Z,730.38
2022-09-12T10:53:34.346Z,706.39
2022-09-12T10:54:30.792Z,701.19
2022-09-12T10:55:30.692Z,693.17
2022-09-12T10:56:30.785Z,697.52
2022-09-12T10:57:30.879Z,659.58
2022-09-12T10:58:31.021Z,691.73
2022-09-12T10:59:31.294Z,701.93
2022-09-12T11:00:31.273Z,726.40
2022-09-12T11:01:31.454Z,681.83
2022-09-12T11:02:31.593Z,603.47
2022-09-12T11:03:31.910Z,595.39
2022-09-12T11:04:31.800Z,606.76
2022-09-12T11:05:31.950Z,597.52
2022-09-12T11:06:32.062Z,614.59
2022-09-12T11:07:32.160Z,666.17
2022-09-12T11:08:32.458Z,680.44
2022-09-12T11:09:32.438Z,680.44
2022-09-12T11:10:36.760Z,660.23
2022-09-12T11:11:33.690Z,709.40
2022-09-12T11:12:32.829Z,753.39
2022-09-12T11:13:33.030Z,697.52
2022-09-12T11:14:33.089Z,713.19
2022-09-12T11:15:33.212Z,701.19
2022-09-12T11:16:33.289Z,683.23
2022-09-12T11:17:33.377Z,683.23
2022-09-12T11:18:33.697Z,649.30
2022-09-12T11:19:33.764Z,651.20
2022-09-12T11:20:33.808Z,669.51
2022-09-12T11:21:33.909Z,683.93
2022-09-12T11:22:33.996Z,663.52
2022-09-12T11:23:34.349Z,672.89
2022-09-12T11:24:34.369Z,690.30
2022-09-12T11:25:34.408Z,679.06
2022-09-12T11:26:34.489Z,678.36
2022-09-12T11:27:34.637Z,688.88
2022-09-12T11:28:35.012Z,696.79
2022-09-12T11:29:34.937Z,676.99
2022-09-12T11:30:35.018Z,636.29
2022-09-12T11:31:35.108Z,608.98
2022-09-12T11:32:35.258Z,610.09
2022-09-12T11:33:39.643Z,630.87
2022-09-12T11:34:36.497Z,666.17
2022-09-12T11:35:35.630Z,686.75
2022-09-12T11:36:35.776Z,697.52
2022-09-12T11:37:35.867Z,698.99
2022-09-12T11:38:36.087Z,661.54
2022-09-12T11:39:36.298Z,687.46
2022-09-12T11:40:36.188Z,713.19
2022-09-12T11:41:36.278Z,707.14
2022-09-12T11:42:36.376Z,590.12
2022-09-12T11:43:36.639Z,641.80
2022-09-12T11:44:40.049Z,662.20
2022-09-12T11:45:36.738Z,676.30
2022-09-12T11:46:36.849Z,686.75
2022-09-12T11:47:36.967Z,675.62
2022-09-12T11:48:37.077Z,688.17
2022-09-12T11:49:37.301Z,688.88
2022-09-12T11:50:37.287Z,683.23
2022-09-12T11:51:37.557Z,700.45
2022-09-12T11:52:37.564Z,702.67
2022-09-12T11:53:37.647Z,715.49
2022-09-12T11:54:37.977Z,736.02
2022-09-12T11:55:38.126Z,717.80
2022-09-12T11:56:38.015Z,702.67
2022-09-12T11:57:38.118Z,715.49
2022-09-12T11:58:38.237Z,706.39
2022-09-12T11:59:38.428Z,693.17
2022-09-12T12:00:38.547Z,707.89
2022-09-12T12:01:42.954Z,724.82
2022-09-12T12:02:39.749Z,736.02
2022-09-12T12:03:38.918Z,750.84
2022-09-12T12:04:38.956Z,724.82
2022-09-12T12:05:39.076Z,718.57
2022-09-12T12:06:39.258Z,678.36
2022-09-12T12:07:44.652Z,701.93
2022-09-12T12:08:40.417Z,716.25
2022-09-12T12:09:39.561Z,727.98
2022-09-12T12:10:39.725Z,710.91
2022-09-12T12:11:39.784Z,701.19
2022-09-12T12:12:39.886Z,732.78
2022-09-12T12:13:40.026Z,751.27
2022-09-12T12:14:40.123Z,772.57
2022-09-12T12:15:40.312Z,779.79
2022-09-12T12:16:40.376Z,740.92
2022-09-12T12:17:40.433Z,713.95
2022-09-12T12:18:40.554Z,720.90
2022-09-12T12:19:40.616Z,739.28
2022-09-12T12:20:40.736Z,731.98
2022-09-12T12:21:40.882Z,740.10
2022-09-12T12:22:40.967Z,754.66
2022-09-12T12:23:41.105Z,740.92
2022-09-12T12:24:41.267Z,736.83
2022-09-12T12:25:41.367Z,687.46
2022-09-12T12:26:41.585Z,701.19
2022-09-12T12:27:41.575Z,735.21
2022-09-12T12:28:41.738Z,725.61
2022-09-12T12:29:44.178Z,751.69
2022-09-12T12:30:41.975Z,756.80
2022-09-12T12:31:42.135Z,773.02
2022-09-12T12:32:42.343Z,736.83
2022-09-12T12:33:42.354Z,758.52
2022-09-12T12:34:42.467Z,660.89
2022-09-12T12:35:42.585Z,632.07
2022-09-12T12:36:42.805Z,620.31
2022-09-12T12:37:42.804Z,691.73
2022-09-12T12:38:42.925Z,718.57
2022-09-12T12:39:43.057Z,753.81
2022-09-12T12:40:43.305Z,765.92
2022-09-12T12:41:43.243Z,753.81
2022-09-12T12:42:43.674Z,754.24
2022-09-12T12:43:43.543Z,802.77
2022-09-12T12:44:43.644Z,785.76